createdAt,value
2018-07-23T00:01:00.115Z,66.53
2018-07-23T00:03:28.631Z,66.63
2018-07-23T00:05:56.831Z,67.23
2018-07-23T00:08:24.883Z,67.63
2018-07-23T00:10:52.980Z,68.51
2018-07-23T00:13:21.049Z,67.65
2018-07-23T00:15:49.326Z,67.79
2018-07-23T00:18:17.355Z,68.55
2018-07-23T00:20:45.487Z,68.09
2018-07-23T00:23:13.507Z,68.78
2018-07-23T00:25:41.588Z,68.71
2018-07-23T00:28:09.684Z,69.78
2018-07-23T00:30:37.848Z,68.73
2018-07-23T00:33:05.875Z,68.30
2018-07-23T00:35:33.943Z,68.51
2018-07-23T00:38:01.993Z,69.49
2018-07-23T00:40:30.023Z,69.09
2018-07-23T00:42:58.041Z,69.77
2018-07-23T00:45:26.060Z,68.51
2018-07-23T00:47:54.103Z,69.36
2018-07-23T00:50:22.124Z,69.56
2018-07-23T00:52:50.147Z,69.87
2018-07-23T00:55:18.164Z,69.00
2018-07-23T00:57:46.203Z,69.01
2018-07-23T01:00:14.226Z,68.88
2018-07-23T01:02:42.479Z,68.92
2018-07-23T01:05:10.515Z,69.81
2018-07-23T01:07:38.536Z,68.66
2018-07-23T01:10:06.568Z,69.78
2018-07-23T01:12:35.498Z,69.04
2018-07-23T01:15:03.651Z,69.16
2018-07-23T01:17:31.682Z,68.72
2018-07-23T01:20:00.266Z,68.89
2018-07-23T01:22:28.883Z,68.54
2018-07-23T01:24:57.791Z,69.65
2018-07-23T01:27:25.816Z,68.21
2018-07-23T01:29:53.823Z,68.24
2018-07-23T01:32:22.231Z,68.23
2018-07-23T01:34:50.391Z,68.30
2018-07-23T01:37:18.904Z,68.27
2018-07-23T01:39:46.954Z,68.13
2018-07-23T01:42:14.962Z,68.79
2018-07-23T01:44:43.087Z,68.50
2018-07-23T01:47:11.550Z,68.88
2018-07-23T01:49:39.582Z,68.03
2018-07-23T01:52:07.630Z,68.41
2018-07-23T01:54:36.033Z,68.64
2018-07-23T01:57:04.348Z,69.29
2018-07-23T01:59:32.400Z,69.80
2018-07-23T02:02:00.435Z,69.39
2018-07-23T02:04:28.479Z,69.86
2018-07-23T02:06:56.507Z,70.13
2018-07-23T02:09:24.564Z,70.64
2018-07-23T02:11:52.607Z,70.92
2018-07-23T02:14:20.630Z,70.76
2018-07-23T02:16:48.667Z,69.91
2018-07-23T02:19:16.683Z,70.53
2018-07-23T02:21:44.739Z,71.02
2018-07-23T02:24:12.781Z,72.06
2018-07-23T02:26:40.787Z,70.85
2018-07-23T02:29:08.827Z,72.54
2018-07-23T02:31:36.883Z,72.99
2018-07-23T02:34:04.899Z,72.67
2018-07-23T02:36:32.939Z,72.11
2018-07-23T02:39:00.991Z,71.71
2018-07-23T02:41:29.039Z,72.09
2018-07-23T02:43:57.063Z,72.50
2018-07-23T02:46:25.114Z,73.06
2018-07-23T02:48:53.162Z,73.60
2018-07-23T02:51:21.207Z,73.53
2018-07-23T02:53:49.245Z,73.19
2018-07-23T02:56:17.263Z,73.04
2018-07-23T02:58:45.411Z,74.14
2018-07-23T03:01:13.448Z,72.97
2018-07-23T03:03:41.491Z,73.28
2018-07-23T03:06:09.499Z,73.66
2018-07-23T03:08:37.539Z,73.37
2018-07-23T03:11:05.579Z,73.44
2018-07-23T03:13:33.623Z,73.32
2018-07-23T03:16:01.663Z,73.34
2018-07-23T03:18:29.736Z,73.77
2018-07-23T03:20:57.770Z,74.36
2018-07-23T03:23:25.863Z,73.95
2018-07-23T03:25:53.893Z,74.90
2018-07-23T03:28:22.012Z,75.60
2018-07-23T03:30:50.100Z,75.55
2018-07-23T03:33:18.074Z,75.57
2018-07-23T03:35:46.122Z,75.70
2018-07-23T03:38:14.172Z,76.00
2018-07-23T03:40:42.223Z,75.52
2018-07-23T03:43:10.268Z,75.84
2018-07-23T03:45:38.307Z,75.61
2018-07-23T03:48:06.379Z,75.14
2018-07-23T03:50:34.411Z,75.23
2018-07-23T03:53:02.472Z,74.63
2018-07-23T03:55:30.511Z,75.14
2018-07-23T03:57:58.559Z,74.41
2018-07-23T04:00:26.635Z,74.76
2018-07-23T04:02:54.682Z,75.43
2018-07-23T04:05:22.720Z,74.64
2018-07-23T04:07:50.756Z,74.58
2018-07-23T04:10:18.803Z,74.73
2018-07-23T04:12:46.838Z,74.86
2018-07-23T04:15:15.040Z,74.51
2018-07-23T04:17:43.073Z,74.83
2018-07-23T04:20:11.111Z,74.85
2018-07-23T04:22:39.184Z,73.53
2018-07-23T04:25:07.259Z,72.80
2018-07-23T04:27:35.407Z,73.20
2018-07-23T04:30:03.495Z,72.87
2018-07-23T04:32:31.535Z,71.76
2018-07-23T04:34:59.603Z,72.30
2018-07-23T04:37:27.631Z,71.52
2018-07-23T04:39:55.651Z,71.79
2018-07-23T04:42:23.701Z,70.75
2018-07-23T04:44:51.711Z,69.13
2018-07-23T04:47:19.752Z,67.67
2018-07-23T04:49:47.968Z,65.93
2018-07-23T04:52:15.980Z,65.01
2018-07-23T04:54:44.036Z,63.81
2018-07-23T04:57:12.076Z,62.73
2018-07-23T04:59:40.099Z,61.14
2018-07-23T05:02:08.135Z,57.32
2018-07-23T05:04:36.167Z,59.23
2018-07-23T05:07:04.308Z,57.72
2018-07-23T05:09:32.362Z,57.10
2018-07-23T05:12:00.383Z,57.37
2018-07-23T05:14:28.415Z,56.19
2018-07-23T05:16:56.428Z,54.65
2018-07-23T05:19:24.779Z,52.57
2018-07-23T05:21:52.870Z,53.61
2018-07-23T05:24:20.957Z,50.93
2018-07-23T05:26:49.000Z,50.24
2018-07-23T05:29:17.036Z,49.05
2018-07-23T05:31:45.144Z,49.28
2018-07-23T05:34:13.115Z,49.12
2018-07-23T05:36:41.488Z,49.09
2018-07-23T05:39:10.982Z,48.28
2018-07-23T05:41:39.016Z,47.77
2018-07-23T05:44:07.144Z,44.99
2018-07-23T05:46:35.215Z,44.83
2018-07-23T05:49:03.274Z,44.98
2018-07-23T05:51:31.335Z,43.73
2018-07-23T05:53:59.387Z,43.46
2018-07-23T05:56:27.633Z,44.11
2018-07-23T05:58:55.811Z,42.72
2018-07-23T06:01:23.843Z,43.59
2018-07-23T06:03:52.180Z,43.24
2018-07-23T06:06:20.283Z,42.07
2018-07-23T06:08:48.296Z,41.24
2018-07-23T06:11:16.709Z,39.69
2018-07-23T06:13:44.746Z,41.56
2018-07-23T06:16:12.772Z,41.43
2018-07-23T06:18:40.863Z,38.56
2018-07-23T06:21:08.915Z,40.25
2018-07-23T06:23:36.993Z,38.70
2018-07-23T06:26:05.162Z,38.98
2018-07-23T06:28:33.363Z,39.04
2018-07-23T06:31:01.397Z,37.19
2018-07-23T06:33:29.584Z,38.37
2018-07-23T06:35:57.612Z,38.79
2018-07-23T06:38:25.652Z,37.32
2018-07-23T06:40:53.707Z,38.62
2018-07-23T06:43:21.730Z,38.95
2018-07-23T06:45:49.781Z,39.47
2018-07-23T06:48:17.822Z,39.37
2018-07-23T06:50:46.258Z,41.18
2018-07-23T06:53:14.298Z,40.15
2018-07-23T06:55:42.363Z,39.66
2018-07-23T06:58:10.439Z,38.42
2018-07-23T07:00:38.473Z,35.77
2018-07-23T07:03:06.944Z,36.60
2018-07-23T07:05:34.983Z,36.97
2018-07-23T07:08:03.023Z,36.48
2018-07-23T07:10:31.071Z,36.50
2018-07-23T07:12:59.084Z,35.24
2018-07-23T07:15:27.155Z,33.07
2018-07-23T07:17:55.212Z,32.99
2018-07-23T07:20:23.290Z,34.27
2018-07-23T07:22:51.349Z,33.67
2018-07-23T07:25:19.465Z,33.21
2018-07-23T07:27:47.511Z,32.35
2018-07-23T07:30:15.554Z,32.93
2018-07-23T07:32:43.669Z,32.36
2018-07-23T07:35:11.731Z,33.40
2018-07-23T07:37:39.758Z,33.06
2018-07-23T07:40:07.808Z,31.86
2018-07-23T07:42:35.858Z,32.88
2018-07-23T07:45:04.003Z,32.20
2018-07-23T07:47:32.064Z,32.31
2018-07-23T07:50:00.112Z,31.38
2018-07-23T07:52:28.190Z,30.94
2018-07-23T07:54:56.207Z,30.87
2018-07-23T07:57:24.540Z,31.71
2018-07-23T07:59:52.601Z,31.25
2018-07-23T08:02:20.647Z,30.59
2018-07-23T08:04:48.736Z,30.95
2018-07-23T08:07:16.829Z,31.40
2018-07-23T08:09:45.148Z,31.58
2018-07-23T08:12:13.184Z,30.84
2018-07-23T08:14:41.234Z,30.28
2018-07-23T08:17:09.267Z,30.99
2018-07-23T08:19:37.328Z,30.58
2018-07-23T08:22:05.381Z,30.91
2018-07-23T08:24:33.454Z,30.67
2018-07-23T08:27:01.471Z,31.45
2018-07-23T08:29:29.794Z,30.66
2018-07-23T08:31:58.067Z,29.62
2018-07-23T08:34:25.936Z,28.83
2018-07-23T08:36:53.972Z,29.14
2018-07-23T08:39:22.013Z,28.74
2018-07-23T08:41:50.062Z,29.17
2018-07-23T08:44:18.081Z,27.33
2018-07-23T08:46:46.163Z,28.21
2018-07-23T08:49:14.548Z,27.32
2018-07-23T08:51:42.570Z,28.21
2018-07-23T08:54:10.673Z,27.17
2018-07-23T08:56:38.719Z,27.91
2018-07-23T08:59:06.790Z,28.34
2018-07-23T09:01:35.055Z,29.10
2018-07-23T09:04:03.095Z,29.44
2018-07-23T09:06:31.154Z,28.04
2018-07-23T09:08:59.191Z,28.10
2018-07-23T09:11:27.225Z,27.03
2018-07-23T09:13:55.295Z,28.82
2018-07-23T09:16:23.347Z,30.53
2018-07-23T09:18:51.939Z,29.32
2018-07-23T09:21:19.963Z,29.12
2018-07-23T09:23:48.013Z,30.06
2018-07-23T09:26:16.047Z,27.66
2018-07-23T09:28:44.087Z,29.23
2018-07-23T09:31:12.167Z,29.32
2018-07-23T09:33:40.211Z,28.63
2018-07-23T09:36:08.259Z,28.29
2018-07-23T09:38:36.353Z,27.29
2018-07-23T09:41:04.427Z,26.38
2018-07-23T09:43:32.735Z,26.29
2018-07-23T09:46:00.775Z,26.18
2018-07-23T09:48:28.814Z,24.22
2018-07-23T09:50:57.139Z,24.19
2018-07-23T09:53:25.205Z,24.42
2018-07-23T09:55:53.232Z,24.88
2018-07-23T09:58:21.378Z,25.04
2018-07-23T10:00:54.683Z,23.75
2018-07-23T10:03:22.832Z,25.01
2018-07-23T10:05:50.772Z,25.12
2018-07-23T10:08:18.815Z,25.48
2018-07-23T10:10:46.856Z,27.53
2018-07-23T10:13:14.899Z,26.90
2018-07-23T10:15:43.218Z,28.02
2018-07-23T10:18:11.268Z,28.66
2018-07-23T10:20:39.279Z,28.84
2018-07-23T10:23:07.648Z,30.44
2018-07-23T10:25:35.667Z,30.05
2018-07-23T10:28:03.707Z,29.38
2018-07-23T10:30:31.767Z,28.72
2018-07-23T10:32:59.866Z,29.62
2018-07-23T10:35:27.903Z,29.11
2018-07-23T10:37:55.983Z,29.88
2018-07-23T10:40:24.002Z,29.50
2018-07-23T10:42:52.395Z,30.78
2018-07-23T10:45:20.443Z,29.76
2018-07-23T10:47:48.496Z,31.81
2018-07-23T10:50:16.561Z,30.95
2018-07-23T10:52:44.592Z,31.47
2018-07-23T10:55:12.656Z,32.02
2018-07-23T10:57:40.730Z,32.01
2018-07-23T11:00:08.889Z,31.99
2018-07-23T11:02:37.488Z,31.95
2018-07-23T11:05:06.435Z,31.54
2018-07-23T11:07:34.518Z,32.37
2018-07-23T11:10:02.733Z,31.94
2018-07-23T11:12:31.288Z,31.92
2018-07-23T11:14:59.437Z,32.15
2018-07-23T11:17:27.545Z,31.51
2018-07-23T11:19:55.684Z,31.98
2018-07-23T11:22:23.797Z,31.31
2018-07-23T11:24:51.970Z,32.18
2018-07-23T11:27:20.050Z,32.11
2018-07-23T11:29:48.112Z,31.76
2018-07-23T11:32:16.393Z,31.62
2018-07-23T11:34:44.459Z,31.93
2018-07-23T11:37:12.529Z,30.24
2018-07-23T11:39:40.664Z,31.26
2018-07-23T11:42:08.707Z,31.78
2018-07-23T11:44:36.808Z,32.59
2018-07-23T11:47:05.129Z,31.08
2018-07-23T11:49:33.461Z,31.03
2018-07-23T11:52:01.529Z,31.33
2018-07-23T11:54:29.572Z,31.28
2018-07-23T11:56:57.792Z,30.98
2018-07-23T11:59:25.788Z,30.98
2018-07-23T12:01:53.853Z,30.00
2018-07-23T12:04:21.975Z,30.61
2018-07-23T12:06:49.963Z,30.87
2018-07-23T12:09:18.048Z,31.60
2018-07-23T12:11:46.148Z,31.85
2018-07-23T12:14:14.197Z,31.32
2018-07-23T12:16:42.264Z,31.41
2018-07-23T12:19:10.318Z,31.72
2018-07-23T12:21:38.404Z,31.42
2018-07-23T12:24:06.626Z,31.37
2018-07-23T12:26:34.669Z,31.43
2018-07-23T12:29:02.739Z,32.33
2018-07-23T12:31:30.809Z,31.83
2018-07-23T12:33:58.871Z,31.13
2018-07-23T12:36:26.921Z,32.06
2018-07-23T12:38:54.967Z,33.29
2018-07-23T12:41:23.069Z,32.02
2018-07-23T12:43:51.955Z,32.04
2018-07-23T12:46:20.208Z,32.63
2018-07-23T12:48:48.270Z,32.57
2018-07-23T12:51:16.332Z,31.66
2018-07-23T12:53:44.363Z,31.11
2018-07-23T12:56:12.569Z,31.61
2018-07-23T12:58:40.618Z,31.89
2018-07-23T13:01:09.249Z,32.87
2018-07-23T13:03:37.365Z,32.54
2018-07-23T13:06:05.439Z,32.17
2018-07-23T13:08:33.504Z,32.21
2018-07-23T13:11:01.556Z,32.49
2018-07-23T13:13:29.596Z,32.48
2018-07-23T13:15:57.666Z,32.89
2018-07-23T13:18:25.722Z,32.96
2018-07-23T13:20:53.793Z,32.49
2018-07-23T13:23:21.854Z,33.23
2018-07-23T13:25:49.946Z,32.66
2018-07-23T13:28:18.011Z,32.47
2018-07-23T13:30:46.081Z,33.06
2018-07-23T13:33:14.188Z,32.98
2018-07-23T13:35:42.267Z,32.80
2018-07-23T13:38:10.376Z,33.41
2018-07-23T13:40:38.426Z,32.77
2018-07-23T13:43:06.491Z,33.31
2018-07-23T13:45:34.663Z,33.51
2018-07-23T13:48:02.773Z,32.93
2018-07-23T13:50:30.969Z,33.20
2018-07-23T13:52:59.085Z,33.58
2018-07-23T13:55:27.336Z,33.83
2018-07-23T13:57:55.416Z,33.67
2018-07-23T14:00:23.488Z,34.38
2018-07-23T14:02:51.563Z,33.65
2018-07-23T14:05:19.668Z,34.38
2018-07-23T14:07:47.700Z,34.35
2018-07-23T14:10:15.783Z,34.47
2018-07-23T14:12:43.877Z,33.50
2018-07-23T14:15:11.972Z,33.86
2018-07-23T14:17:40.013Z,34.09
2018-07-23T14:20:08.108Z,34.06
2018-07-23T14:22:36.186Z,34.82
2018-07-23T14:25:04.432Z,34.29
2018-07-23T14:27:32.705Z,34.44
2018-07-23T14:30:00.779Z,34.78
2018-07-23T14:32:28.876Z,33.73
2018-07-23T14:34:56.944Z,34.74
2018-07-23T14:37:25.040Z,34.93
2018-07-23T14:39:54.177Z,35.29
2018-07-23T14:42:22.272Z,34.41
2018-07-23T14:44:50.343Z,35.02
2018-07-23T14:47:18.445Z,35.40
2018-07-23T14:49:46.550Z,35.10
2018-07-23T14:52:14.574Z,34.98
2018-07-23T14:54:49.067Z,35.04
2018-07-23T14:57:17.142Z,35.58
2018-07-23T14:59:45.348Z,35.40
2018-07-23T15:02:13.475Z,35.11
2018-07-23T15:04:41.578Z,35.66
2018-07-23T15:07:09.919Z,35.38
2018-07-23T15:09:38.418Z,34.68
2018-07-23T15:12:06.526Z,34.66
2018-07-23T15:14:34.629Z,34.68
2018-07-23T15:17:02.681Z,34.00
2018-07-23T15:19:30.735Z,34.35
2018-07-23T15:21:58.842Z,34.38
2018-07-23T15:24:26.923Z,34.38
2018-07-23T15:26:54.988Z,33.69
2018-07-23T15:29:23.080Z,34.08
2018-07-23T15:31:51.222Z,34.61
2018-07-23T15:34:19.863Z,34.41
2018-07-23T15:36:48.489Z,34.18
2018-07-23T15:39:16.659Z,34.22
2018-07-23T15:41:44.968Z,34.58
2018-07-23T15:44:13.200Z,35.10
2018-07-23T15:46:41.212Z,34.57
2018-07-23T15:49:09.454Z,33.86
2018-07-23T15:51:37.538Z,34.81
2018-07-23T15:54:05.978Z,34.11
2018-07-23T15:56:34.205Z,33.71
2018-07-23T15:59:02.350Z,34.45
2018-07-23T16:01:30.505Z,34.23
2018-07-23T16:03:58.954Z,34.24
2018-07-23T16:06:27.070Z,33.64
2018-07-23T16:08:55.448Z,34.21
2018-07-23T16:11:23.624Z,33.56
2018-07-23T16:13:51.719Z,33.72
2018-07-23T16:16:19.860Z,33.34
2018-07-23T16:18:47.968Z,33.83
2018-07-23T16:21:16.237Z,33.16
2018-07-23T16:23:44.363Z,33.77
2018-07-23T16:26:12.432Z,33.49
2018-07-23T16:28:40.606Z,33.27
2018-07-23T16:31:08.672Z,33.71
2018-07-23T16:33:37.088Z,34.04
2018-07-23T16:36:05.153Z,33.73
2018-07-23T16:38:33.269Z,33.45
2018-07-23T16:41:01.431Z,34.44
2018-07-23T16:43:29.604Z,33.80
2018-07-23T16:45:57.817Z,34.65
2018-07-23T16:48:25.851Z,34.85
2018-07-23T16:50:53.907Z,34.60
2018-07-23T16:53:22.282Z,34.31
2018-07-23T16:55:50.440Z,35.45
2018-07-23T16:58:18.839Z,35.06
2018-07-23T17:00:46.939Z,34.76
2018-07-23T17:03:15.103Z,35.37
2018-07-23T17:05:45.592Z,34.88
2018-07-23T17:08:14.046Z,34.73
2018-07-23T17:10:42.147Z,35.25
2018-07-23T17:13:10.234Z,35.54
2018-07-23T17:15:38.348Z,35.66
2018-07-23T17:18:06.526Z,35.60
2018-07-23T17:20:34.960Z,35.35
2018-07-23T17:23:03.093Z,34.94
2018-07-23T17:25:31.253Z,34.71
2018-07-23T17:27:59.782Z,35.32
2018-07-23T17:30:27.875Z,34.83
2018-07-23T17:32:55.948Z,35.23
2018-07-23T17:35:24.097Z,34.90
2018-07-23T17:37:52.166Z,35.28
2018-07-23T17:40:20.268Z,34.98
2018-07-23T17:42:48.356Z,34.66
2018-07-23T17:45:16.519Z,35.09
2018-07-23T17:47:44.656Z,34.88
2018-07-23T17:50:15.956Z,35.60
2018-07-23T17:52:44.330Z,35.16
2018-07-23T17:55:12.719Z,35.29
2018-07-23T17:57:40.780Z,35.19
2018-07-23T18:00:08.865Z,35.16
2018-07-23T18:02:36.937Z,35.20
2018-07-23T18:05:05.000Z,36.23
2018-07-23T18:07:33.098Z,36.48
2018-07-23T18:10:01.265Z,35.68
2018-07-23T18:12:29.318Z,36.14
2018-07-23T18:14:57.401Z,36.79
2018-07-23T18:17:25.478Z,37.11
2018-07-23T18:19:53.542Z,36.72
2018-07-23T18:22:21.882Z,36.59
2018-07-23T18:24:49.984Z,36.51
2018-07-23T18:27:18.051Z,37.16
2018-07-23T18:29:46.291Z,36.87
2018-07-23T18:32:14.450Z,37.20
2018-07-23T18:34:42.539Z,37.27
2018-07-23T18:37:10.653Z,36.72
2018-07-23T18:39:39.022Z,37.72
2018-07-23T18:42:07.167Z,37.22
2018-07-23T18:44:35.264Z,37.31
2018-07-23T18:47:03.372Z,38.23
2018-07-23T18:49:44.023Z,38.07
2018-07-23T18:52:12.522Z,38.76
2018-07-23T18:54:41.372Z,38.29
2018-07-23T18:57:09.998Z,38.31
2018-07-23T18:59:38.153Z,38.92
2018-07-23T19:02:07.771Z,38.89
2018-07-23T19:04:35.811Z,39.30
2018-07-23T19:07:03.916Z,38.55
2018-07-23T19:09:32.102Z,39.48
2018-07-23T19:12:00.708Z,39.38
2018-07-23T19:14:29.044Z,39.72
2018-07-23T19:16:58.126Z,40.65
2018-07-23T19:19:26.359Z,40.85
2018-07-23T19:21:54.499Z,40.77
2018-07-23T19:24:22.694Z,40.81
2018-07-23T19:26:51.434Z,41.06
2018-07-23T19:29:19.572Z,41.09
2018-07-23T19:31:48.015Z,41.46
2018-07-23T19:34:16.235Z,42.77
2018-07-23T19:36:44.356Z,42.30
2018-07-23T19:39:14.305Z,42.50
2018-07-23T19:41:42.450Z,42.65
2018-07-23T19:44:10.890Z,43.28
2018-07-23T19:46:39.162Z,43.32
2018-07-23T19:49:07.311Z,43.83
2018-07-23T19:51:35.691Z,44.27
2018-07-23T19:54:03.947Z,43.96
2018-07-23T19:56:32.077Z,44.70
2018-07-23T19:59:00.328Z,44.80
2018-07-23T20:01:28.429Z,44.89
2018-07-23T20:03:56.624Z,44.94
2018-07-23T20:06:26.151Z,45.35
2018-07-23T20:08:55.041Z,45.36
2018-07-23T20:11:23.910Z,45.65
2018-07-23T20:13:52.266Z,45.63
2018-07-23T20:16:20.511Z,46.48
2018-07-23T20:18:48.615Z,46.42
2018-07-23T20:21:16.715Z,46.95
2018-07-23T20:23:45.099Z,47.26
2018-07-23T20:26:13.236Z,47.61
2018-07-23T20:28:41.311Z,47.85
2018-07-23T20:31:09.580Z,47.46
2018-07-23T20:33:37.643Z,47.50
2018-07-23T20:36:06.262Z,48.73
2018-07-23T20:38:34.801Z,51.15
2018-07-23T20:41:02.887Z,50.53
2018-07-23T20:43:31.715Z,49.93
2018-07-23T20:46:00.321Z,49.60
2018-07-23T20:48:28.408Z,50.58
2018-07-23T20:50:56.820Z,51.10
2018-07-23T20:53:24.883Z,51.70
2018-07-23T20:55:53.095Z,51.45
2018-07-23T20:58:21.471Z,51.82
2018-07-23T21:00:49.566Z,52.07
2018-07-23T21:03:17.656Z,53.05
2018-07-23T21:05:45.757Z,52.68
2018-07-23T21:08:13.865Z,52.67
2018-07-23T21:10:41.992Z,53.48
2018-07-23T21:13:10.097Z,54.84
2018-07-23T21:15:38.467Z,55.92
2018-07-23T21:18:06.614Z,54.50
2018-07-23T21:20:34.730Z,55.70
2018-07-23T21:23:03.012Z,55.16
2018-07-23T21:25:31.149Z,54.79
2018-07-23T21:27:59.252Z,55.77
2018-07-23T21:30:27.328Z,55.24
2018-07-23T21:32:55.419Z,55.50
2018-07-23T21:35:23.560Z,55.61
2018-07-23T21:37:51.812Z,55.70
2018-07-23T21:40:19.927Z,55.57
2018-07-23T21:42:48.073Z,55.63
2018-07-23T21:45:16.486Z,55.96
2018-07-23T21:47:44.564Z,56.37
2018-07-23T21:50:12.619Z,56.87
2018-07-23T21:52:40.774Z,57.17
2018-07-23T21:55:08.938Z,56.57
2018-07-23T21:57:37.011Z,56.86
2018-07-23T22:00:09.389Z,56.90
2018-07-23T22:02:38.088Z,57.03
2018-07-23T22:05:06.766Z,56.81
2018-07-23T22:07:34.887Z,57.06
2018-07-23T22:10:03.046Z,57.25
2018-07-23T22:12:31.213Z,57.79
2018-07-23T22:14:59.271Z,59.39
2018-07-23T22:17:27.324Z,59.03
2018-07-23T22:19:55.440Z,59.39
2018-07-23T22:22:23.827Z,59.06
2018-07-23T22:24:51.946Z,58.81
2018-07-23T22:27:20.044Z,59.40
2018-07-23T22:29:48.145Z,59.87
2018-07-23T22:32:16.227Z,60.23
2018-07-23T22:34:44.330Z,60.03
2018-07-23T22:37:12.536Z,59.77
2018-07-23T22:39:40.602Z,59.77
2018-07-23T22:42:08.717Z,59.54
2018-07-23T22:44:36.895Z,59.90
2018-07-23T22:47:05.331Z,59.61
2018-07-23T22:49:33.414Z,60.38
2018-07-23T22:52:01.486Z,60.41
2018-07-23T22:54:29.549Z,60.40
2018-07-23T22:56:57.612Z,60.13
2018-07-23T22:59:25.698Z,60.15
2018-07-23T23:01:53.776Z,60.19
2018-07-23T23:04:21.817Z,60.55
2018-07-23T23:06:49.913Z,60.56
2018-07-23T23:09:18.007Z,60.62
2018-07-23T23:11:46.095Z,60.72
2018-07-23T23:14:14.166Z,61.37
2018-07-23T23:16:42.212Z,60.87
2018-07-23T23:19:10.344Z,60.99
2018-07-23T23:21:38.379Z,61.02
2018-07-23T23:24:06.467Z,61.18
2018-07-23T23:26:34.523Z,61.19
2018-07-23T23:29:02.600Z,62.61
2018-07-23T23:31:30.636Z,63.28
2018-07-23T23:33:58.672Z,62.10
2018-07-23T23:36:26.733Z,63.27
2018-07-23T23:38:55.123Z,63.91
2018-07-23T23:41:23.163Z,64.61
2018-07-23T23:43:51.211Z,63.47
2018-07-23T23:46:19.339Z,63.06
2018-07-23T23:48:47.412Z,63.31
2018-07-23T23:51:15.490Z,63.94
2018-07-23T23:53:43.545Z,63.09
2018-07-23T23:56:11.624Z,64.16
2018-07-23T23:58:39.656Z,64.03
